createdAt,value
2023-03-02T00:01:47.154Z,1.20
2023-03-02T00:04:37.242Z,1.10
2023-03-02T00:07:08.571Z,1.10
2023-03-02T00:09:36.792Z,1.10
2023-03-02T00:12:04.942Z,1.10
2023-03-02T00:14:32.369Z,1.20
2023-03-02T00:16:59.364Z,1.30
2023-03-02T00:19:26.680Z,1.20
2023-03-02T00:21:53.638Z,1.30
2023-03-02T00:24:20.975Z,1.20
2023-03-02T00:26:47.925Z,1.20
2023-03-02T00:29:15.191Z,1.20
2023-03-02T00:31:42.235Z,1.20
2023-03-02T00:34:09.535Z,1.20
2023-03-02T00:36:36.594Z,1.20
2023-03-02T00:39:04.749Z,1.20
2023-03-02T00:41:31.685Z,1.20
2023-03-02T00:43:59.000Z,1.10
2023-03-02T00:46:26.214Z,1.10
2023-03-02T00:48:53.585Z,1.10
2023-03-02T00:51:20.931Z,1.10
2023-03-02T00:53:48.217Z,1.10
2023-03-02T00:56:15.152Z,1.10
2023-03-02T00:58:42.492Z,1.10
2023-03-02T01:01:11.822Z,1.10
2023-03-02T01:03:39.192Z,1.10
2023-03-02T01:06:06.665Z,1.10
2023-03-02T01:08:33.932Z,1.10
2023-03-02T01:11:01.477Z,1.10
2023-03-02T01:13:29.189Z,1.10
2023-03-02T01:16:03.512Z,1.10
2023-03-02T01:18:30.903Z,1.10
2023-03-02T01:21:02.903Z,1.20
2023-03-02T01:23:30.249Z,1.20
2023-03-02T01:25:57.290Z,1.20
2023-03-02T01:28:24.686Z,1.10
2023-03-02T01:30:51.891Z,1.10
2023-03-02T01:33:19.205Z,1.10
2023-03-02T01:35:47.568Z,1.10
2023-03-02T01:38:15.134Z,1.10
2023-03-02T01:40:42.110Z,1.00
2023-03-02T01:43:14.823Z,1.00
2023-03-02T01:45:59.115Z,1.00
2023-03-02T01:48:32.608Z,1.00
2023-03-02T01:51:01.896Z,1.00
2023-03-02T01:53:32.473Z,1.00
2023-03-02T01:56:00.364Z,1.00
2023-03-02T01:58:29.145Z,1.00
2023-03-02T02:00:57.263Z,1.00
2023-03-02T02:03:28.805Z,0.90
2023-03-02T02:06:01.823Z,1.00
2023-03-02T02:08:29.072Z,0.90
2023-03-02T02:10:56.494Z,1.00
2023-03-02T02:13:23.848Z,1.00
2023-03-02T02:15:51.305Z,1.00
2023-03-02T02:18:18.716Z,1.00
2023-03-02T02:20:48.836Z,1.00
2023-03-02T02:23:47.135Z,1.00
2023-03-02T02:26:27.881Z,1.00
2023-03-02T02:29:23.195Z,0.90
2023-03-02T02:31:52.992Z,0.90
2023-03-02T02:34:59.379Z,0.90
2023-03-02T02:37:34.332Z,0.90
2023-03-02T02:40:07.179Z,0.90
2023-03-02T02:42:39.178Z,0.90
2023-03-02T02:45:17.151Z,0.90
2023-03-02T02:47:44.370Z,0.90
2023-03-02T02:50:33.487Z,0.90
2023-03-02T02:53:21.951Z,0.90
2023-03-02T02:55:53.386Z,0.90
2023-03-02T02:58:42.050Z,0.90
2023-03-02T03:01:13.723Z,0.90
2023-03-02T03:03:46.008Z,0.90
2023-03-02T03:06:18.645Z,0.80
2023-03-02T03:08:49.038Z,0.80
2023-03-02T03:11:26.426Z,0.70
2023-03-02T03:13:56.315Z,0.50
2023-03-02T03:16:25.276Z,0.70
2023-03-02T03:18:53.073Z,0.80
2023-03-02T03:21:20.472Z,0.90
2023-03-02T03:23:47.443Z,0.90
2023-03-02T03:26:14.724Z,0.90
2023-03-02T03:28:41.649Z,0.90
2023-03-02T03:31:09.118Z,1.00
2023-03-02T03:33:36.150Z,0.90
2023-03-02T03:36:03.965Z,0.90
2023-03-02T03:38:31.190Z,0.90
2023-03-02T03:40:58.435Z,0.90
2023-03-02T03:43:25.580Z,0.90
2023-03-02T03:45:53.011Z,1.00
2023-03-02T03:48:20.191Z,0.90
2023-03-02T03:50:47.494Z,0.80
2023-03-02T03:53:14.469Z,0.80
2023-03-02T03:55:41.788Z,0.70
2023-03-02T03:58:08.836Z,0.60
2023-03-02T04:00:36.314Z,0.30
2023-03-02T04:03:03.430Z,0.10
2023-03-02T04:05:31.740Z,0.00
2023-03-02T04:08:02.038Z,0.10
2023-03-02T04:10:29.730Z,0.20
2023-03-02T04:12:56.995Z,0.10
2023-03-02T04:15:24.597Z,0.00
2023-03-02T04:17:52.543Z,0.00
2023-03-02T04:20:21.060Z,-0.20
2023-03-02T04:22:51.535Z,-0.30
2023-03-02T04:25:22.233Z,-0.30
2023-03-02T04:27:50.779Z,-0.50
2023-03-02T04:30:22.969Z,-0.70
2023-03-02T04:32:50.121Z,-0.90
2023-03-02T04:35:17.760Z,-0.60
2023-03-02T04:37:47.005Z,-0.40
2023-03-02T04:40:15.901Z,-0.70
2023-03-02T04:42:44.638Z,-0.70
2023-03-02T04:45:13.608Z,-0.70
2023-03-02T04:47:40.899Z,-0.70
2023-03-02T04:50:10.621Z,-0.50
2023-03-02T04:52:38.132Z,-0.30
2023-03-02T04:55:06.658Z,0.00
2023-03-02T04:57:35.244Z,0.20
2023-03-02T05:00:02.554Z,0.40
2023-03-02T05:02:29.603Z,0.40
2023-03-02T05:04:57.023Z,0.30
2023-03-02T05:07:23.992Z,0.40
2023-03-02T05:09:51.240Z,0.10
2023-03-02T05:12:21.655Z,0.00
2023-03-02T05:14:49.075Z,0.00
2023-03-02T05:17:15.998Z,0.20
2023-03-02T05:19:43.306Z,0.50
2023-03-02T05:22:10.257Z,0.50
2023-03-02T05:24:37.996Z,0.40
2023-03-02T05:27:04.926Z,0.40
2023-03-02T05:29:32.346Z,0.50
2023-03-02T05:31:59.371Z,0.70
2023-03-02T05:34:26.666Z,0.70
2023-03-02T05:36:53.674Z,0.50
2023-03-02T05:39:20.911Z,0.40
2023-03-02T05:41:48.598Z,0.60
2023-03-02T05:44:16.430Z,0.40
2023-03-02T05:46:43.375Z,0.00
2023-03-02T05:49:10.902Z,-0.20
2023-03-02T05:51:37.880Z,-0.30
2023-03-02T05:54:05.177Z,-0.40
2023-03-02T05:56:32.391Z,-0.40
2023-03-02T05:58:59.830Z,-0.20
2023-03-02T06:01:26.777Z,0.00
2023-03-02T06:03:54.006Z,0.10
2023-03-02T06:06:20.934Z,0.20
2023-03-02T06:08:48.311Z,0.40
2023-03-02T06:11:15.326Z,0.80
2023-03-02T06:13:42.630Z,1.00
2023-03-02T06:16:10.098Z,0.80
2023-03-02T06:18:40.896Z,0.50
2023-03-02T06:21:08.601Z,0.40
2023-03-02T06:23:36.172Z,0.30
2023-03-02T06:26:09.094Z,0.40
2023-03-02T06:28:49.734Z,0.60
2023-03-02T06:31:18.844Z,0.90
2023-03-02T06:33:46.191Z,1.60
2023-03-02T06:36:14.976Z,2.10
2023-03-02T06:38:42.278Z,2.40
2023-03-02T06:41:09.208Z,2.80
2023-03-02T06:43:36.486Z,3.30
2023-03-02T06:46:04.159Z,3.70
2023-03-02T06:48:31.551Z,4.00
2023-03-02T06:50:59.004Z,4.40
2023-03-02T06:53:26.647Z,4.70
2023-03-02T06:55:53.827Z,5.00
2023-03-02T06:58:21.193Z,4.90
2023-03-02T07:00:48.170Z,5.50
2023-03-02T07:03:15.605Z,5.40
2023-03-02T07:05:45.136Z,5.50
2023-03-02T07:08:13.739Z,5.70
2023-03-02T07:10:40.685Z,5.70
2023-03-02T07:13:09.261Z,5.70
2023-03-02T07:15:39.157Z,5.70
2023-03-02T07:18:06.645Z,5.80
2023-03-02T07:20:34.183Z,6.10
2023-03-02T07:23:01.564Z,6.40
2023-03-02T07:25:28.504Z,6.20
2023-03-02T07:27:55.817Z,6.40
2023-03-02T07:30:22.796Z,6.60
2023-03-02T07:32:50.313Z,7.00
2023-03-02T07:35:17.550Z,7.10
2023-03-02T07:37:44.902Z,7.40
2023-03-02T07:40:12.923Z,8.10
2023-03-02T07:42:40.655Z,8.30
2023-03-02T07:45:07.974Z,8.40
2023-03-02T07:47:35.233Z,8.50
2023-03-02T07:50:02.366Z,8.60
2023-03-02T07:52:30.810Z,8.70
2023-03-02T07:54:57.941Z,8.80
2023-03-02T07:57:25.276Z,9.60
2023-03-02T07:59:52.287Z,10.90
2023-03-02T08:02:20.558Z,11.80
2023-03-02T08:04:47.792Z,12.70
2023-03-02T08:07:15.134Z,13.70
2023-03-02T08:09:42.092Z,13.80
2023-03-02T08:12:09.480Z,13.80
2023-03-02T08:14:37.497Z,13.50
2023-03-02T08:17:05.552Z,13.20
2023-03-02T08:19:33.437Z,13.30
2023-03-02T08:22:01.665Z,13.40
2023-03-02T08:24:28.585Z,13.70
2023-03-02T08:26:56.234Z,14.10
2023-03-02T08:29:24.618Z,14.00
2023-03-02T08:31:52.073Z,13.40
2023-03-02T08:34:19.392Z,13.60
2023-03-02T08:36:46.697Z,13.80
2023-03-02T08:39:13.792Z,14.00
2023-03-02T08:41:41.151Z,14.00
2023-03-02T08:44:09.026Z,13.70
2023-03-02T08:46:36.479Z,13.90
2023-03-02T08:49:03.477Z,13.50
2023-03-02T08:51:31.443Z,13.20
2023-03-02T08:53:58.631Z,13.30
2023-03-02T08:56:28.742Z,12.80
2023-03-02T08:58:59.476Z,13.10
2023-03-02T09:01:29.823Z,13.00
2023-03-02T09:03:59.827Z,13.40
2023-03-02T09:06:32.568Z,13.10
2023-03-02T09:08:59.572Z,12.80
2023-03-02T09:11:27.145Z,11.80
2023-03-02T09:13:54.905Z,11.40
2023-03-02T09:16:24.170Z,11.50
2023-03-02T09:18:51.480Z,11.70
2023-03-02T09:21:19.465Z,11.80
2023-03-02T09:23:46.516Z,12.20
2023-03-02T09:26:13.907Z,12.20
2023-03-02T09:28:40.959Z,12.50
2023-03-02T09:31:08.868Z,12.20
2023-03-02T09:33:36.316Z,12.60
2023-03-02T09:36:12.400Z,12.90
2023-03-02T09:38:39.430Z,13.30
2023-03-02T09:41:09.585Z,13.30
2023-03-02T09:43:59.926Z,13.60
2023-03-02T09:46:49.523Z,13.80
2023-03-02T09:49:33.353Z,13.80
2023-03-02T09:52:28.514Z,14.20
2023-03-02T09:54:57.026Z,14.50
2023-03-02T09:57:28.696Z,14.50
2023-03-02T10:00:19.014Z,14.20
2023-03-02T10:03:02.410Z,14.20
2023-03-02T10:05:42.829Z,14.30
2023-03-02T10:08:16.167Z,14.20
2023-03-02T10:10:57.828Z,14.40
2023-03-02T10:13:33.676Z,14.70
2023-03-02T10:16:26.143Z,14.80
2023-03-02T10:19:12.272Z,14.70
2023-03-02T10:21:58.166Z,14.50
2023-03-02T10:25:00.451Z,14.50
2023-03-02T10:27:38.596Z,14.70
2023-03-02T10:30:22.637Z,14.50
2023-03-02T10:32:51.954Z,14.30
2023-03-02T10:35:23.201Z,14.70
2023-03-02T10:38:12.209Z,14.90
2023-03-02T10:40:43.850Z,14.80
2023-03-02T10:43:25.184Z,14.40
2023-03-02T10:46:19.135Z,13.90
2023-03-02T10:49:22.866Z,13.60
2023-03-02T10:52:05.144Z,13.40
2023-03-02T10:54:34.500Z,13.70
2023-03-02T10:57:04.178Z,13.90
2023-03-02T10:59:43.522Z,13.90
2023-03-02T11:02:28.346Z,13.90
2023-03-02T11:04:57.470Z,14.10
2023-03-02T11:07:29.565Z,14.00
2023-03-02T11:10:02.321Z,14.20
2023-03-02T11:12:31.628Z,14.10
2023-03-02T11:15:21.858Z,14.30
2023-03-02T11:18:14.689Z,14.10
2023-03-02T11:20:45.844Z,14.40
2023-03-02T11:23:15.928Z,14.10
2023-03-02T11:25:56.855Z,14.00
2023-03-02T11:28:30.581Z,13.80
2023-03-02T11:30:59.692Z,13.90
2023-03-02T11:33:37.430Z,13.70
2023-03-02T11:36:20.581Z,13.70
2023-03-02T11:38:51.365Z,13.50
2023-03-02T11:41:27.257Z,13.40
2023-03-02T11:43:55.081Z,13.00
2023-03-02T11:46:26.749Z,12.90
2023-03-02T11:48:59.467Z,12.60
2023-03-02T11:51:34.034Z,12.70
2023-03-02T11:54:11.520Z,12.60
2023-03-02T11:56:40.599Z,12.60
2023-03-02T11:59:17.147Z,12.70
2023-03-02T12:01:48.169Z,12.80
2023-03-02T12:04:35.312Z,12.90
2023-03-02T12:07:22.762Z,13.00
2023-03-02T12:10:03.889Z,13.00
2023-03-02T12:12:42.604Z,13.10
2023-03-02T12:15:50.962Z,13.10
2023-03-02T12:18:24.698Z,13.10
2023-03-02T12:21:39.039Z,13.10
2023-03-02T12:24:06.392Z,13.40
2023-03-02T12:26:37.031Z,13.50
2023-03-02T12:29:24.268Z,13.60
2023-03-02T12:31:56.731Z,13.30
2023-03-02T12:34:37.629Z,13.40
2023-03-02T12:37:21.454Z,13.40
2023-03-02T12:40:10.781Z,13.50
2023-03-02T12:42:38.079Z,13.40
2023-03-02T12:45:22.159Z,13.30
2023-03-02T12:47:56.989Z,13.30
2023-03-02T12:50:27.607Z,12.80
2023-03-02T12:53:00.124Z,11.50
2023-03-02T12:55:27.548Z,10.40
2023-03-02T12:57:58.185Z,9.90
2023-03-02T13:00:30.179Z,9.50
2023-03-02T13:02:59.085Z,9.60
2023-03-02T13:05:32.648Z,9.30
2023-03-02T13:08:27.528Z,9.30
2023-03-02T13:11:00.524Z,9.30
2023-03-02T13:13:44.456Z,9.30
2023-03-02T13:16:25.413Z,9.30
2023-03-02T13:19:01.690Z,8.80
2023-03-02T13:21:32.661Z,8.70
2023-03-02T13:24:00.990Z,9.00
2023-03-02T13:26:34.460Z,9.20
2023-03-02T13:29:06.264Z,9.20
2023-03-02T13:31:34.859Z,9.60
2023-03-02T13:34:02.562Z,10.00
2023-03-02T13:36:39.883Z,10.10
2023-03-02T13:39:17.810Z,10.30
2023-03-02T13:41:56.731Z,10.20
2023-03-02T13:44:29.954Z,10.10
2023-03-02T13:46:57.626Z,9.90
2023-03-02T13:49:33.199Z,10.10
2023-03-02T13:52:17.705Z,10.00
2023-03-02T13:54:47.916Z,9.90
2023-03-02T13:57:22.542Z,9.70
2023-03-02T13:59:49.859Z,9.70
2023-03-02T14:02:25.548Z,9.60
2023-03-02T14:04:53.406Z,9.60
2023-03-02T14:07:20.997Z,9.80
2023-03-02T14:09:48.654Z,10.00
2023-03-02T14:12:28.519Z,10.20
2023-03-02T14:14:58.862Z,10.10
2023-03-02T14:17:26.731Z,9.90
2023-03-02T14:19:55.244Z,9.80
2023-03-02T14:22:25.064Z,9.90
2023-03-02T14:24:53.472Z,9.70
2023-03-02T14:27:20.862Z,9.60
2023-03-02T14:29:48.191Z,9.70
2023-03-02T14:32:15.697Z,9.60
2023-03-02T14:34:43.090Z,9.40
2023-03-02T14:37:16.252Z,9.30
2023-03-02T14:39:47.473Z,9.40
2023-03-02T14:42:17.076Z,9.70
2023-03-02T14:44:46.319Z,9.80
2023-03-02T14:47:16.444Z,9.90
2023-03-02T14:49:44.017Z,9.70
2023-03-02T14:52:41.811Z,9.60
2023-03-02T14:55:26.880Z,9.70
2023-03-02T14:58:10.737Z,9.90
2023-03-02T15:00:49.496Z,9.60
2023-03-02T15:03:25.586Z,9.30
2023-03-02T15:06:00.794Z,9.20
2023-03-02T15:08:29.235Z,9.40
2023-03-02T15:10:56.605Z,9.60
2023-03-02T15:13:23.583Z,9.70
2023-03-02T15:15:52.688Z,9.60
2023-03-02T15:18:19.955Z,9.30
2023-03-02T15:20:47.318Z,9.20
2023-03-02T15:23:14.337Z,9.20
2023-03-02T15:25:42.916Z,9.30
2023-03-02T15:28:10.230Z,9.40
2023-03-02T15:30:37.498Z,9.60
2023-03-02T15:33:04.513Z,9.50
2023-03-02T15:35:31.912Z,9.20
2023-03-02T15:38:02.438Z,9.00
2023-03-02T15:40:29.741Z,8.90
2023-03-02T15:42:56.759Z,8.80
2023-03-02T15:45:24.025Z,8.90
2023-03-02T15:47:50.997Z,9.00
2023-03-02T15:50:18.825Z,9.00
2023-03-02T15:52:45.746Z,8.90
2023-03-02T15:55:16.425Z,8.70
2023-03-02T15:57:43.446Z,8.40
2023-03-02T16:00:13.394Z,8.10
2023-03-02T16:02:40.904Z,7.70
2023-03-02T16:05:09.188Z,7.50
2023-03-02T16:07:37.220Z,7.30
2023-03-02T16:10:05.470Z,7.30
2023-03-02T16:12:32.568Z,7.20
2023-03-02T16:14:59.834Z,7.20
2023-03-02T16:17:27.366Z,7.00
2023-03-02T16:19:54.666Z,6.90
2023-03-02T16:22:21.818Z,6.70
2023-03-02T16:24:49.681Z,6.50
2023-03-02T16:27:16.655Z,6.40
2023-03-02T16:29:44.068Z,6.20
2023-03-02T16:32:11.163Z,6.10
2023-03-02T16:34:38.562Z,5.90
2023-03-02T16:37:05.513Z,5.80
2023-03-02T16:39:32.987Z,5.70
2023-03-02T16:41:59.974Z,5.60
2023-03-02T16:44:27.387Z,5.50
2023-03-02T16:46:56.965Z,5.40
2023-03-02T16:49:24.843Z,5.30
2023-03-02T16:51:57.845Z,5.10
2023-03-02T16:54:25.199Z,5.00
2023-03-02T16:56:52.113Z,4.90
2023-03-02T16:59:19.670Z,4.80
2023-03-02T17:01:46.716Z,4.70
2023-03-02T17:04:14.084Z,4.60
2023-03-02T17:06:59.937Z,4.40
2023-03-02T17:09:28.275Z,4.30
2023-03-02T17:11:55.320Z,4.10
2023-03-02T17:14:22.948Z,3.90
2023-03-02T17:16:49.969Z,3.80
2023-03-02T17:19:17.221Z,3.70
2023-03-02T17:21:44.394Z,3.60
2023-03-02T17:24:11.749Z,3.50
2023-03-02T17:26:38.749Z,3.40
2023-03-02T17:29:07.711Z,3.30
2023-03-02T17:31:34.716Z,3.30
2023-03-02T17:34:02.018Z,3.20
2023-03-02T17:36:29.027Z,3.20
2023-03-02T17:38:56.457Z,3.20
2023-03-02T17:41:23.486Z,3.20
2023-03-02T17:43:50.864Z,3.20
2023-03-02T17:46:25.268Z,3.10
2023-03-02T17:48:56.489Z,3.10
2023-03-02T17:51:25.463Z,3.00
2023-03-02T17:53:54.785Z,3.00
2023-03-02T17:56:25.437Z,2.90
2023-03-02T17:59:01.568Z,2.80
2023-03-02T18:01:29.563Z,2.90
2023-03-02T18:03:56.932Z,3.00
2023-03-02T18:06:24.632Z,2.90
2023-03-02T18:08:52.278Z,2.90
2023-03-02T18:11:22.026Z,2.90
2023-03-02T18:13:49.587Z,2.90
2023-03-02T18:16:16.660Z,2.80
2023-03-02T18:18:43.951Z,2.50
2023-03-02T18:21:10.960Z,2.20
2023-03-02T18:23:39.788Z,2.20
2023-03-02T18:26:08.550Z,2.20
2023-03-02T18:28:35.989Z,1.80
2023-03-02T18:31:03.199Z,1.70
2023-03-02T18:33:30.588Z,1.70
2023-03-02T18:35:57.637Z,1.60
2023-03-02T18:38:30.828Z,1.60
2023-03-02T18:41:00.607Z,1.50
2023-03-02T18:43:28.673Z,1.60
2023-03-02T18:45:56.794Z,1.60
2023-03-02T18:48:24.908Z,1.70
2023-03-02T18:50:52.104Z,1.70
2023-03-02T18:53:19.544Z,1.60
2023-03-02T18:55:46.763Z,1.60
2023-03-02T18:58:19.986Z,1.50
2023-03-02T19:00:47.487Z,1.30
2023-03-02T19:03:16.651Z,1.20
2023-03-02T19:05:44.404Z,1.20
2023-03-02T19:08:12.182Z,1.10
2023-03-02T19:10:42.165Z,1.10
2023-03-02T19:13:11.556Z,1.20
2023-03-02T19:15:40.263Z,1.20
2023-03-02T19:18:07.910Z,1.00
2023-03-02T19:20:35.074Z,0.90
2023-03-02T19:23:02.416Z,1.00
2023-03-02T19:25:29.462Z,1.00
2023-03-02T19:27:57.183Z,1.00
2023-03-02T19:30:26.842Z,0.90
2023-03-02T19:32:54.821Z,0.90
2023-03-02T19:35:25.957Z,0.90
2023-03-02T19:37:53.240Z,0.90
2023-03-02T19:40:22.527Z,1.00
2023-03-02T19:42:50.220Z,0.70
2023-03-02T19:45:24.885Z,0.50
2023-03-02T19:47:52.501Z,0.30
2023-03-02T19:50:21.524Z,0.10
2023-03-02T19:52:52.363Z,0.00
2023-03-02T19:55:20.327Z,-0.10
2023-03-02T19:57:51.457Z,-0.20
2023-03-02T20:00:20.119Z,-0.20
2023-03-02T20:02:47.499Z,-0.20
2023-03-02T20:05:15.318Z,-0.30
2023-03-02T20:07:43.037Z,-0.40
2023-03-02T20:10:17.751Z,-0.40
2023-03-02T20:12:45.013Z,-0.40
2023-03-02T20:15:12.081Z,-0.40
2023-03-02T20:17:39.541Z,-0.50
2023-03-02T20:20:07.532Z,-0.50
2023-03-02T20:22:34.881Z,-0.50
2023-03-02T20:25:01.868Z,-0.50
2023-03-02T20:27:29.304Z,-0.60
2023-03-02T20:29:56.335Z,-0.70
2023-03-02T20:32:24.730Z,-0.70
2023-03-02T20:34:52.023Z,-0.70
2023-03-02T20:37:20.005Z,-0.50
2023-03-02T20:39:49.741Z,-0.40
2023-03-02T20:42:17.656Z,-0.10
2023-03-02T20:44:44.665Z,-0.30
2023-03-02T20:47:14.740Z,-0.50
2023-03-02T20:49:42.759Z,-0.60
2023-03-02T20:52:11.484Z,-0.70
2023-03-02T20:54:41.469Z,-0.70
2023-03-02T20:57:08.926Z,-0.80
2023-03-02T20:59:37.499Z,-0.80
2023-03-02T21:02:05.714Z,-0.90
2023-03-02T21:04:34.495Z,-0.90
2023-03-02T21:07:02.742Z,-0.90
2023-03-02T21:09:30.608Z,-1.00
2023-03-02T21:11:58.787Z,-0.90
2023-03-02T21:14:27.458Z,-1.00
2023-03-02T21:16:54.813Z,-0.80
2023-03-02T21:19:21.892Z,-0.90
2023-03-02T21:21:49.207Z,-1.00
2023-03-02T21:24:17.117Z,-0.90
2023-03-02T21:26:46.138Z,-0.90
2023-03-02T21:29:14.019Z,-1.00
2023-03-02T21:31:42.476Z,-0.90
2023-03-02T21:34:11.299Z,-0.90
2023-03-02T21:36:38.736Z,-1.00
2023-03-02T21:39:07.377Z,-1.00
2023-03-02T21:41:36.121Z,-0.90
2023-03-02T21:44:05.647Z,-0.90
2023-03-02T21:46:34.846Z,-0.80
2023-03-02T21:49:01.882Z,-0.60
2023-03-02T21:51:29.248Z,-0.60
2023-03-02T21:53:56.213Z,-0.60
2023-03-02T21:56:25.149Z,-0.80
2023-03-02T21:58:54.992Z,-0.90
2023-03-02T22:01:23.568Z,-0.80
2023-03-02T22:03:50.543Z,-0.50
2023-03-02T22:06:21.580Z,-0.30
2023-03-02T22:08:49.033Z,-0.30
2023-03-02T22:11:25.498Z,-0.40
2023-03-02T22:14:07.072Z,-0.70
2023-03-02T22:16:37.952Z,-1.10
2023-03-02T22:19:24.414Z,-1.20
2023-03-02T22:21:53.425Z,-0.90
2023-03-02T22:24:30.109Z,-0.70
2023-03-02T22:27:16.395Z,-0.50
2023-03-02T22:29:45.643Z,-0.30
2023-03-02T22:32:21.447Z,-0.30
2023-03-02T22:34:51.946Z,-0.70
2023-03-02T22:37:25.685Z,-1.10
2023-03-02T22:39:56.741Z,-1.30
2023-03-02T22:42:27.054Z,-1.10
2023-03-02T22:45:14.802Z,-0.90
2023-03-02T22:47:43.365Z,-0.90
2023-03-02T22:50:20.654Z,-1.00
2023-03-02T22:52:47.970Z,-0.90
2023-03-02T22:55:44.449Z,-1.00
2023-03-02T22:58:20.642Z,-1.00
2023-03-02T23:00:48.180Z,-1.00
2023-03-02T23:03:22.752Z,-1.00
2023-03-02T23:05:51.700Z,-0.90
2023-03-02T23:08:28.730Z,-0.80
2023-03-02T23:10:59.197Z,-0.80
2023-03-02T23:13:38.120Z,-0.90
2023-03-02T23:16:26.146Z,-1.00
2023-03-02T23:18:56.430Z,-0.80
2023-03-02T23:21:28.409Z,-0.80
2023-03-02T23:23:56.156Z,-0.80
2023-03-02T23:26:23.225Z,-0.90
2023-03-02T23:28:51.046Z,-1.10
2023-03-02T23:31:18.513Z,-0.90
2023-03-02T23:33:46.129Z,-0.50
2023-03-02T23:36:13.716Z,-0.20
2023-03-02T23:38:41.071Z,-0.50
2023-03-02T23:41:08.941Z,-0.70
2023-03-02T23:43:36.560Z,-0.80
2023-03-02T23:46:03.697Z,-0.90
2023-03-02T23:48:31.929Z,-0.90
2023-03-02T23:50:59.220Z,-0.80
2023-03-02T23:53:26.535Z,-0.70
2023-03-02T23:55:55.275Z,-0.60
2023-03-02T23:58:23.061Z,-0.90
